Time;durP1;ratioP1;P1;durP2;ratioP2;P2;SDS_P1;SDS_P2;PMS_P1;PMS_P2;Temp;Humidity;BMP_temperature;BMP_pressure;BME280_temperature;BME280_humidity;BME280_pressure;Samples;Min_cycle;Max_cycle;Signal;HPM_P1;HPM_P2
2023/10/03 00:02:03;;;;;;;21.30;10.60;;;17.90;99.90;;;;;;6038625;23;20161;-85
2023/10/03 00:04:28;;;;;;;23.80;10.40;;;17.80;99.90;;;;;;6061604;23;20196;-85
2023/10/03 00:06:54;;;;;;;17.83;10.60;;;17.80;99.90;;;;;;6061259;23;20261;-84
2023/10/03 00:09:20;;;;;;;18.90;9.13;;;17.80;99.90;;;;;;6037161;23;20955;-84
2023/10/03 00:11:46;;;;;;;16.17;8.07;;;17.80;99.90;;;;;;6037063;23;20622;-84
2023/10/03 00:14:12;;;;;;;16.27;8.83;;;17.70;99.90;;;;;;6085850;23;20164;-83
2023/10/03 00:16:39;;;;;;;11.67;8.27;;;17.80;99.90;;;;;;6061356;23;20967;-83
2023/10/03 00:19:05;;;;;;;17.03;9.10;;;17.90;99.90;;;;;;6109363;23;20764;-84
2023/10/03 00:21:31;;;;;;;15.63;8.90;;;17.80;99.90;;;;;;6110011;23;20203;-84
2023/10/03 00:23:56;;;;;;;19.90;8.47;;;17.70;99.90;;;;;;6110300;23;20318;-84
2023/10/03 00:26:22;;;;;;;19.23;8.80;;;17.80;99.90;;;;;;6037274;23;20224;-83
2023/10/03 00:28:51;;;;;;;19.63;8.53;;;17.90;99.90;;;;;;6084707;23;20203;-84
2023/10/03 00:31:17;;;;;;;14.63;9.57;;;17.90;99.90;;;;;;6083899;23;20371;-84
2023/10/03 00:33:43;;;;;;;17.07;9.33;;;17.90;99.90;;;;;;6061014;23;20279;-84
2023/10/03 00:36:23;;;;;;;19.17;9.87;;;17.80;99.90;;;;;;6110535;23;20645;-84
2023/10/03 00:38:53;;;;;;;19.60;9.70;;;17.80;99.90;;;;;;6085098;23;20149;-84
2023/10/03 00:41:22;;;;;;;19.30;8.47;;;17.80;99.90;;;;;;6061745;23;20669;-84
2023/10/03 00:44:01;;;;;;;25.37;10.63;;;18.00;99.90;;;;;;6084271;23;20195;-84
2023/10/03 00:46:29;;;;;;;19.77;9.50;;;18.00;99.90;;;;;;6062622;23;20199;-83
2023/10/03 00:48:56;;;;;;;24.30;9.47;;;18.00;99.90;;;;;;6110402;23;20200;-83
2023/10/03 00:51:23;;;;;;;22.87;10.20;;;18.00;99.90;;;;;;6110113;23;21019;-84
2023/10/03 00:53:53;;;;;;;28.53;10.40;;;18.10;99.90;;;;;;6110631;23;20629;-84
2023/10/03 00:56:19;;;;;;;16.00;9.37;;;18.00;99.90;;;;;;6062347;23;20163;-83
2023/10/03 00:58:44;;;;;;;19.50;10.73;;;18.00;99.90;;;;;;6060551;23;20657;-84
2023/10/03 01:01:11;;;;;;;23.63;12.23;;;18.00;99.90;;;;;;6060759;23;20223;-84
2023/10/03 01:03:38;;;;;;;25.30;11.83;;;18.00;99.90;;;;;;6037124;23;20259;-83
2023/10/03 01:06:09;;;;;;;22.30;10.90;;;18.10;99.90;;;;;;6109894;23;20978;-83
2023/10/03 01:08:41;;;;;;;21.87;10.33;;;18.10;99.90;;;;;;6109432;23;20215;-84
2023/10/03 01:11:15;;;;;;;21.70;10.63;;;18.10;99.90;;;;;;6085609;23;20188;-83
2023/10/03 01:13:41;;;;;;;19.57;9.13;;;18.10;99.90;;;;;;6083859;23;20219;-84
2023/10/03 01:16:07;;;;;;;18.77;10.67;;;18.10;99.90;;;;;;6110708;23;20266;-84
2023/10/03 01:18:37;;;;;;;22.90;11.00;;;18.20;99.90;;;;;;6083607;23;20519;-85
2023/10/03 01:21:05;;;;;;;21.70;11.20;;;18.10;99.90;;;;;;6060617;23;20278;-84
2023/10/03 01:23:37;;;;;;;15.77;9.07;;;18.10;99.90;;;;;;6110233;23;20194;-84
2023/10/03 01:26:05;;;;;;;18.37;8.87;;;18.10;99.90;;;;;;6084844;23;20206;-84
2023/10/03 01:28:31;;;;;;;26.37;11.67;;;18.10;99.90;;;;;;6109718;23;20271;-85
2023/10/03 01:30:57;;;;;;;20.40;9.93;;;18.10;99.90;;;;;;6084627;23;20271;-84
2023/10/03 01:33:26;;;;;;;19.80;10.30;;;18.10;99.90;;;;;;6084544;23;20196;-84
2023/10/03 01:35:55;;;;;;;13.30;7.37;;;18.10;99.90;;;;;;6084196;23;20191;-85
2023/10/03 01:38:22;;;;;;;22.97;10.17;;;18.00;99.90;;;;;;6110926;23;20568;-84
2023/10/03 01:40:52;;;;;;;19.00;9.67;;;18.00;99.90;;;;;;6059786;23;20245;-85
2023/10/03 01:43:18;;;;;;;18.17;9.50;;;18.00;99.90;;;;;;6084213;23;20223;-84
2023/10/03 01:45:44;;;;;;;19.43;9.87;;;17.90;99.90;;;;;;6060406;23;20208;-84
2023/10/03 01:48:12;;;;;;;18.33;9.93;;;17.90;99.90;;;;;;6060481;23;20388;-84
2023/10/03 01:50:38;;;;;;;23.03;9.60;;;18.00;99.90;;;;;;6109573;23;20216;-85
2023/10/03 01:53:06;;;;;;;17.80;8.80;;;17.90;99.90;;;;;;6084895;23;20164;-84
2023/10/03 01:55:32;;;;;;;17.13;9.77;;;17.90;99.90;;;;;;6084088;23;20226;-84
2023/10/03 01:57:58;;;;;;;20.90;8.73;;;17.80;99.90;;;;;;6084275;23;20256;-84
2023/10/03 02:00:25;;;;;;;16.83;9.20;;;17.80;99.90;;;;;;6084426;23;20208;-84
2023/10/03 02:02:53;;;;;;;18.90;8.40;;;17.80;99.90;;;;;;6060041;23;20567;-84
2023/10/03 02:05:23;;;;;;;18.00;7.40;;;17.70;99.90;;;;;;6084800;23;20171;-85
2023/10/03 02:07:51;;;;;;;23.50;9.13;;;17.70;99.90;;;;;;6060117;23;20199;-85
2023/10/03 02:10:20;;;;;;;17.03;9.07;;;17.70;99.90;;;;;;6083801;23;20287;-85
2023/10/03 02:12:49;;;;;;;19.13;9.93;;;17.70;99.90;;;;;;6083606;23;20208;-84
2023/10/03 02:15:24;;;;;;;23.80;9.47;;;17.70;99.90;;;;;;6109887;23;20207;-84
2023/10/03 02:17:55;;;;;;;27.87;9.77;;;17.70;99.90;;;;;;6110314;23;20160;-83
2023/10/03 02:20:25;;;;;;;24.63;10.20;;;17.70;99.90;;;;;;6084699;23;20586;-83
2023/10/03 02:22:54;;;;;;;13.33;8.87;;;17.60;99.90;;;;;;6060740;23;20200;-84
2023/10/03 02:25:30;;;;;;;24.67;9.27;;;17.70;99.90;;;;;;6109566;23;20203;-83
2023/10/03 02:27:57;;;;;;;20.00;9.30;;;17.60;99.90;;;;;;6060394;23;20287;-83
2023/10/03 02:30:25;;;;;;;14.90;7.07;;;17.70;99.90;;;;;;6109898;23;20219;-83
2023/10/03 02:32:55;;;;;;;19.40;9.30;;;17.70;99.90;;;;;;6083665;23;20196;-83
2023/10/03 02:35:24;;;;;;;15.57;9.43;;;17.80;99.90;;;;;;6060508;23;20220;-83
2023/10/03 02:37:58;;;;;;;13.43;6.33;;;17.80;99.90;;;;;;6109071;23;20235;-84
2023/10/03 02:40:28;;;;;;;16.43;7.20;;;17.90;99.90;;;;;;6110068;23;20676;-83
2023/10/03 02:42:54;;;;;;;16.97;8.50;;;17.90;99.90;;;;;;6109796;23;20196;-83
2023/10/03 02:45:25;;;;;;;18.97;7.93;;;18.00;99.90;;;;;;6059265;23;20563;-84
2023/10/03 02:47:55;;;;;;;20.03;7.30;;;18.00;99.90;;;;;;6083576;23;20263;-84
2023/10/03 02:50:26;;;;;;;19.70;8.50;;;18.10;99.90;;;;;;6084122;23;20208;-84
2023/10/03 02:52:56;;;;;;;13.20;6.33;;;18.10;99.90;;;;;;6110034;23;20210;-84
2023/10/03 02:55:22;;;;;;;20.07;7.77;;;18.20;99.90;;;;;;6086398;23;20216;-83
2023/10/03 02:57:49;;;;;;;15.67;8.47;;;18.20;99.90;;;;;;6061226;23;20211;-82
2023/10/03 03:00:15;;;;;;;15.60;7.10;;;18.20;99.90;;;;;;6111288;23;20196;-84
2023/10/03 03:02:42;;;;;;;14.53;7.40;;;18.30;99.90;;;;;;6111283;23;20171;-83
2023/10/03 03:05:15;;;;;;;15.33;8.73;;;18.40;99.90;;;;;;6085849;23;20164;-84
2023/10/03 03:07:45;;;;;;;18.60;7.80;;;18.40;99.90;;;;;;6110874;23;20278;-83
2023/10/03 03:10:14;;;;;;;18.43;8.27;;;18.40;99.90;;;;;;6086487;23;20213;-83
2023/10/03 03:12:42;;;;;;;17.07;6.57;;;18.50;99.90;;;;;;6111055;23;20204;-83
2023/10/03 03:15:10;;;;;;;18.77;7.60;;;18.50;99.90;;;;;;6085352;23;20214;-83
2023/10/03 03:17:39;;;;;;;18.13;6.37;;;18.50;99.90;;;;;;6085472;23;20598;-84
2023/10/03 03:20:18;;;;;;;11.20;6.83;;;18.50;99.90;;;;;;6086133;23;20164;-84
2023/10/03 03:22:48;;;;;;;15.13;7.33;;;18.50;99.90;;;;;;6088095;23;20196;-84
2023/10/03 03:28:15;;;;;;;14.33;8.20;;;18.60;99.90;;;;;;6072248;23;20192;-84
2023/10/03 03:30:56;;;;;;;13.67;5.87;;;18.70;99.90;;;;;;6061128;23;21129;-84
2023/10/03 03:33:27;;;;;;;16.23;5.57;;;18.60;99.90;;;;;;6085492;23;20204;-84
2023/10/03 03:35:56;;;;;;;17.77;7.13;;;18.70;99.90;;;;;;6086510;23;20247;-84
2023/10/03 03:38:23;;;;;;;14.83;5.47;;;18.70;99.90;;;;;;6086565;23;20167;-84
2023/10/03 03:40:56;;;;;;;16.87;6.53;;;18.80;99.90;;;;;;6084563;23;20204;-84
2023/10/03 03:43:22;;;;;;;12.23;5.47;;;18.80;99.90;;;;;;6086311;23;20219;-84
2023/10/03 03:45:49;;;;;;;14.20;7.03;;;18.80;99.90;;;;;;6110705;23;20215;-84
2023/10/03 03:48:15;;;;;;;12.87;6.50;;;18.90;99.90;;;;;;6085985;23;20199;-84
2023/10/03 03:50:41;;;;;;;10.93;6.13;;;18.90;99.90;;;;;;6085527;23;20282;-83
2023/10/03 03:53:07;;;;;;;11.83;6.47;;;18.90;99.90;;;;;;6085685;23;20164;-84
2023/10/03 03:55:37;;;;;;;8.90;5.47;;;18.90;99.90;;;;;;6085563;23;20250;-84
2023/10/03 03:58:07;;;;;;;22.03;6.70;;;18.90;99.90;;;;;;6061767;23;20196;-84
2023/10/03 04:00:34;;;;;;;11.63;6.10;;;18.90;99.90;;;;;;6086103;23;20207;-84
2023/10/03 04:03:05;;;;;;;12.53;6.63;;;18.80;99.90;;;;;;6085412;23;20192;-84
2023/10/03 04:05:33;;;;;;;17.83;6.23;;;18.80;99.90;;;;;;6085088;23;20214;-83
2023/10/03 04:07:59;;;;;;;10.83;5.73;;;18.90;99.90;;;;;;6062376;23;20164;-84
2023/10/03 04:10:26;;;;;;;14.20;4.27;;;18.80;99.90;;;;;;6085244;23;20744;-85
2023/10/03 04:12:54;;;;;;;16.30;5.67;;;18.80;99.90;;;;;;6085431;23;20638;-85
2023/10/03 04:15:20;;;;;;;18.17;7.33;;;18.80;99.90;;;;;;6061945;23;20259;-83
2023/10/03 04:17:48;;;;;;;18.13;6.60;;;18.70;99.90;;;;;;6085425;23;20156;-84
2023/10/03 04:20:30;;;;;;;12.27;4.83;;;18.70;99.90;;;;;;6086127;23;20168;-83
2023/10/03 04:22:58;;;;;;;7.50;4.27;;;18.80;99.90;;;;;;6085535;23;20215;-83
2023/10/03 04:25:25;;;;;;;16.40;5.33;;;18.80;99.90;;;;;;6061662;23;20202;-85
2023/10/03 04:27:52;;;;;;;8.97;4.60;;;18.90;99.90;;;;;;6110860;23;20646;-83
2023/10/03 04:30:25;;;;;;;14.10;6.00;;;19.00;99.90;;;;;;6085303;23;20232;-84
2023/10/03 04:32:51;;;;;;;11.20;5.73;;;19.00;99.90;;;;;;6086305;23;20283;-83
2023/10/03 04:35:19;;;;;;;8.13;4.37;;;19.00;99.90;;;;;;6085971;23;20164;-84
2023/10/03 04:37:46;;;;;;;14.00;4.93;;;19.20;99.90;;;;;;6110703;23;20215;-83
2023/10/03 04:40:21;;;;;;;10.83;6.13;;;19.20;99.90;;;;;;6084580;23;20630;-83
2023/10/03 04:42:50;;;;;;;8.60;4.80;;;19.30;99.90;;;;;;6086174;23;20230;-85
2023/10/03 04:45:18;;;;;;;11.40;4.87;;;19.30;99.90;;;;;;6061612;23;20203;-83
2023/10/03 04:47:45;;;;;;;19.03;6.57;;;19.40;99.90;;;;;;6061016;23;20215;-85
2023/10/03 04:50:12;;;;;;;11.07;4.90;;;19.50;99.90;;;;;;6085157;23;20212;-84
2023/10/03 04:52:38;;;;;;;11.37;6.00;;;19.60;99.90;;;;;;6060519;23;20223;-83
2023/10/03 04:55:05;;;;;;;11.63;5.20;;;19.60;99.90;;;;;;6084033;23;20247;-83
2023/10/03 04:57:30;;;;;;;14.63;4.50;;;19.60;99.90;;;;;;6059808;23;20304;-83
2023/10/03 04:59:56;;;;;;;14.27;6.23;;;19.70;99.90;;;;;;6109979;23;20298;-86
2023/10/03 05:02:27;;;;;;;15.53;6.23;;;19.70;99.90;;;;;;6036918;23;20184;-83
2023/10/03 05:04:52;;;;;;;12.50;5.20;;;19.70;99.90;;;;;;6060376;23;20263;-83
2023/10/03 05:07:18;;;;;;;9.03;6.03;;;19.60;99.90;;;;;;6060188;23;20208;-85
2023/10/03 05:09:44;;;;;;;14.83;5.47;;;19.60;99.90;;;;;;6084034;23;20546;-85
2023/10/03 05:12:10;;;;;;;13.87;6.03;;;19.50;99.90;;;;;;6060372;23;20223;-83
2023/10/03 05:14:42;;;;;;;24.47;6.37;;;19.50;99.90;;;;;;6060738;23;20273;-85
2023/10/03 05:17:07;;;;;;;25.60;8.23;;;19.50;99.90;;;;;;6085689;23;20172;-84
2023/10/03 05:19:34;;;;;;;16.60;6.87;;;19.50;99.90;;;;;;6061009;23;20274;-83
2023/10/03 05:22:00;;;;;;;17.30;6.10;;;19.40;99.90;;;;;;6083691;23;20239;-83
2023/10/03 05:24:26;;;;;;;17.67;6.83;;;19.40;99.90;;;;;;6084213;23;20199;-83
2023/10/03 05:26:51;;;;;;;21.00;7.77;;;19.30;99.90;;;;;;6060126;23;20243;-84
2023/10/03 05:29:18;;;;;;;13.30;6.83;;;19.30;99.90;;;;;;6061443;23;20168;-84
2023/10/03 05:31:44;;;;;;;25.80;7.50;;;19.30;99.90;;;;;;6083959;23;20197;-84
2023/10/03 05:34:12;;;;;;;27.83;8.67;;;19.20;99.90;;;;;;6060240;23;20682;-83
2023/10/03 05:36:38;;;;;;;13.53;7.77;;;19.20;99.90;;;;;;6061235;23;20708;-84
2023/10/03 05:39:07;;;;;;;27.10;7.60;;;19.10;99.90;;;;;;6083498;23;21053;-84
2023/10/03 05:41:32;;;;;;;18.23;7.93;;;19.10;99.90;;;;;;6084151;23;20470;-84
2023/10/03 05:43:58;;;;;;;16.13;5.43;;;19.10;99.90;;;;;;6036923;23;20194;-84
2023/10/03 05:46:24;;;;;;;15.80;7.37;;;19.00;99.90;;;;;;6083910;23;20207;-84
2023/10/03 05:48:51;;;;;;;15.17;7.53;;;19.00;99.90;;;;;;6059639;23;20204;-82
2023/10/03 05:51:17;;;;;;;25.30;8.07;;;19.00;99.90;;;;;;6036228;23;20242;-83
2023/10/03 05:53:43;;;;;;;13.50;6.60;;;19.00;99.90;;;;;;6083459;23;20949;-85
2023/10/03 05:56:10;;;;;;;7.33;4.83;;;18.90;99.90;;;;;;6037950;23;20674;-83
2023/10/03 05:58:38;;;;;;;14.83;8.60;;;19.00;99.90;;;;;;6111247;23;20203;-91
2023/10/03 06:01:04;;;;;;;19.97;8.03;;;18.90;99.90;;;;;;6077154;23;20203;-92
2023/10/03 06:03:30;;;;;;;17.90;6.83;;;18.90;99.90;;;;;;6052474;23;20195;-93
2023/10/03 06:05:59;;;;;;;18.10;5.50;;;18.90;99.90;;;;;;6076372;23;20549;-93
2023/10/03 06:08:24;;;;;;;6.93;6.23;;;18.90;99.90;;;;;;6079378;23;20167;-95
2023/10/03 06:10:50;;;;;;;12.63;6.90;;;18.80;99.90;;;;;;6076848;23;20283;-90
2023/10/03 06:13:16;;;;;;;11.70;4.27;;;18.80;99.90;;;;;;6053596;23;20200;-95
2023/10/03 06:15:42;;;;;;;15.20;5.27;;;18.80;99.90;;;;;;6055406;23;20192;-93
2023/10/03 06:18:08;;;;;;;9.90;4.47;;;18.80;99.90;;;;;;6101696;23;20207;-95
2023/10/03 06:20:34;;;;;;;14.13;3.03;;;18.70;99.90;;;;;;6078784;23;20164;-92
2023/10/03 06:23:04;;;;;;;17.23;3.53;;;18.50;99.90;;;;;;6080397;23;20160;-95
2023/10/03 06:25:30;;;;;;;10.33;3.30;;;18.40;99.90;;;;;;6101526;23;20192;-93
2023/10/03 06:27:57;;;;;;;8.80;3.57;;;18.30;99.90;;;;;;6102370;23;20216;-92
2023/10/03 06:30:23;;;;;;;6.13;2.73;;;18.20;99.90;;;;;;6102587;23;20275;-92
2023/10/03 06:32:49;;;;;;;3.87;2.20;;;18.10;99.90;;;;;;6101754;23;20227;-94
2023/10/03 06:35:15;;;;;;;3.63;2.27;;;18.00;99.90;;;;;;6103687;23;20159;-92
2023/10/03 06:37:41;;;;;;;5.80;2.10;;;17.80;99.90;;;;;;6078023;23;20211;-92
2023/10/03 06:40:08;;;;;;;10.63;2.07;;;17.80;99.90;;;;;;6102078;23;20207;-90
2023/10/03 06:42:35;;;;;;;9.27;1.80;;;17.80;99.90;;;;;;6078212;23;20223;-93
2023/10/03 06:45:11;;;;;;;1.90;1.30;;;17.60;99.90;;;;;;6128725;23;20203;-91
2023/10/03 06:47:38;;;;;;;3.17;2.00;;;17.50;99.90;;;;;;6102866;23;20148;-91
2023/10/03 06:50:08;;;;;;;7.00;0.87;;;17.20;99.90;;;;;;6102022;23;20203;-90
2023/10/03 06:52:35;;;;;;;3.10;1.50;;;17.10;99.90;;;;;;6102180;23;20204;-91
2023/10/03 06:55:04;;;;;;;4.00;1.80;;;17.10;99.90;;;;;;6078966;23;20200;-89
2023/10/03 06:57:32;;;;;;;1.77;1.30;;;17.00;99.90;;;;;;6102661;23;20296;-92
2023/10/03 06:59:58;;;;;;;1.13;0.70;;;17.00;99.90;;;;;;6127713;23;20200;-90
2023/10/03 07:02:26;;;;;;;1.70;0.97;;;16.90;99.90;;;;;;6055426;23;20160;-92
2023/10/03 07:04:52;;;;;;;3.40;0.93;;;16.90;99.90;;;;;;6102634;23;20195;-91
2023/10/03 07:07:18;;;;;;;1.03;0.83;;;16.80;99.90;;;;;;6078494;23;20696;-91
2023/10/03 07:09:43;;;;;;;2.37;1.17;;;16.80;99.90;;;;;;6101169;23;20628;-89
2023/10/03 07:12:09;;;;;;;0.60;0.30;;;16.70;99.90;;;;;;6077989;23;20200;-91
2023/10/03 07:14:36;;;;;;;2.80;1.10;;;16.70;99.90;;;;;;6053720;23;20601;-90
2023/10/03 07:17:03;;;;;;;0.97;0.70;;;16.70;99.90;;;;;;6079214;23;20235;-94
2023/10/03 07:19:30;;;;;;;1.90;0.57;;;16.60;99.90;;;;;;6101612;23;20231;-91
2023/10/03 07:21:57;;;;;;;0.50;0.50;;;16.60;99.90;;;;;;6077535;23;20192;-92
2023/10/03 07:24:25;;;;;;;0.43;0.43;;;16.60;99.90;;;;;;6101695;23;20200;-93
2023/10/03 07:26:51;;;;;;;1.70;0.50;;;16.50;99.90;;;;;;6101372;23;20200;-90
2023/10/03 07:29:17;;;;;;;0.50;0.50;;;16.60;99.90;;;;;;6128228;23;20179;-90
2023/10/03 07:31:44;;;;;;;0.90;0.43;;;16.60;99.90;;;;;;6077529;23;20207;-90
2023/10/03 07:34:10;;;;;;;1.00;0.73;;;16.60;99.90;;;;;;6077523;23;20207;-90
2023/10/03 07:36:38;;;;;;;1.93;0.70;;;16.80;99.90;;;;;;6074983;23;20192;-92
2023/10/03 07:39:05;;;;;;;6.90;0.83;;;16.80;99.90;;;;;;6077827;23;20266;-89
2023/10/03 07:41:31;;;;;;;4.33;0.53;;;16.90;99.90;;;;;;6101360;23;20597;-90
2023/10/03 07:43:59;;;;;;;0.30;0.30;;;16.90;99.90;;;;;;6078277;23;20160;-88
2023/10/03 07:46:28;;;;;;;0.40;0.40;;;16.90;99.90;;;;;;6076450;23;20196;-89
2023/10/03 07:48:56;;;;;;;0.20;0.20;;;16.90;99.90;;;;;;6102209;23;20701;-93
2023/10/03 07:51:27;;;;;;;2.53;0.73;;;16.90;99.90;;;;;;6097307;23;20220;-91
2023/10/03 07:53:55;;;;;;;1.20;0.70;;;16.80;99.90;;;;;;6097079;23;20267;-93
2023/10/03 07:56:33;;;;;;;0.80;0.80;;;16.90;99.90;;;;;;6098798;23;20153;-92
2023/10/03 07:59:04;;;;;;;7.83;0.40;;;16.90;99.90;;;;;;6074610;23;20217;-90
2023/10/03 08:01:30;;;;;;;0.20;0.20;;;16.80;99.90;;;;;;6098183;23;20200;-90
2023/10/03 08:03:58;;;;;;;0.30;0.30;;;16.60;99.90;;;;;;6073594;23;20284;-91
2023/10/03 08:06:33;;;;;;;0.57;0.57;;;16.30;99.90;;;;;;6073440;23;20228;-92
2023/10/03 08:08:59;;;;;;;2.37;0.47;;;16.10;99.90;;;;;;6076847;23;20188;-91
2023/10/03 08:11:29;;;;;;;0.30;0.30;;;16.00;99.90;;;;;;6056304;23;20195;-90
2023/10/03 08:14:00;;;;;;;0.53;0.53;;;15.90;99.90;;;;;;6094975;23;20205;-92
2023/10/03 08:16:27;;;;;;;0.30;0.30;;;16.00;99.90;;;;;;6094999;23;20203;-91
2023/10/03 08:18:58;;;;;;;0.27;0.27;;;16.10;99.90;;;;;;6060840;23;20193;-92
2023/10/03 08:21:28;;;;;;;0.10;0.10;;;16.00;99.90;;;;;;6067745;23;20200;-92
2023/10/03 08:23:55;;;;;;;0.20;0.20;;;15.80;99.90;;;;;;6076093;23;20193;-93
2023/10/03 08:26:27;;;;;;;1.80;0.80;;;15.60;99.90;;;;;;6079375;23;20180;-94
2023/10/03 08:28:59;;;;;;;0.20;0.20;;;15.50;99.90;;;;;;6085020;23;20216;-91
2023/10/03 08:31:27;;;;;;;1.07;1.00;;;15.50;99.90;;;;;;6087655;23;20237;-93
2023/10/03 08:33:55;;;;;;;0.27;0.27;;;15.60;99.90;;;;;;6087989;23;20287;-92
2023/10/03 08:36:28;;;;;;;4.27;0.63;;;15.60;99.90;;;;;;6101553;23;20279;-91
2023/10/03 08:39:04;;;;;;;0.87;0.30;;;15.70;99.90;;;;;;6103490;23;20231;-91
2023/10/03 08:42:13;;;;;;;1.60;0.30;;;15.70;99.90;;;;;;6079138;23;20149;-93
2023/10/03 08:44:51;;;;;;;0.20;0.20;;;15.80;99.90;;;;;;6104287;23;20267;-93
2023/10/03 08:47:31;;;;;;;0.43;0.40;;;15.80;99.90;;;;;;6079816;23;20153;-92
2023/10/03 08:50:14;;;;;;;0.70;0.30;;;15.90;99.90;;;;;;6085672;23;20211;-91
2023/10/03 08:52:47;;;;;;;0.30;0.20;;;16.00;99.90;;;;;;6106210;23;20204;-93
2023/10/03 08:55:15;;;;;;;2.13;1.10;;;16.00;99.90;;;;;;6107040;23;20202;-92
2023/10/03 08:57:47;;;;;;;0.30;0.30;;;16.10;99.90;;;;;;6134308;23;20203;-92
2023/10/03 09:00:17;;;;;;;2.07;0.70;;;16.20;99.90;;;;;;6109637;23;20207;-93
2023/10/03 09:02:49;;;;;;;0.30;0.30;;;16.00;99.90;;;;;;6086528;23;20164;-92
2023/10/03 09:05:20;;;;;;;0.50;0.30;;;16.00;99.90;;;;;;6110792;23;20144;-90
2023/10/03 09:07:50;;;;;;;1.37;0.67;;;16.00;99.90;;;;;;6110761;23;20254;-94
2023/10/03 09:10:23;;;;;;;4.47;0.97;;;15.80;99.90;;;;;;6109510;23;20270;-93
2023/10/03 09:12:56;;;;;;;0.20;0.20;;;15.80;99.90;;;;;;6113736;23;20255;-92
2023/10/03 09:15:22;;;;;;;0.30;0.30;;;15.90;99.90;;;;;;6136573;23;20200;-94
2023/10/03 09:17:52;;;;;;;1.60;0.40;;;15.90;99.90;;;;;;6093182;23;20161;-93
2023/10/03 09:20:31;;;;;;;0.40;0.40;;;16.10;99.90;;;;;;6110454;23;20163;-93
2023/10/03 09:23:05;;;;;;;0.40;0.40;;;16.20;99.90;;;;;;6106384;23;20271;-90
2023/10/03 09:25:32;;;;;;;3.80;0.57;;;16.20;99.90;;;;;;6078856;23;20195;-91
2023/10/03 09:28:06;;;;;;;0.20;0.20;;;16.20;99.90;;;;;;6102877;23;20202;-89
2023/10/03 09:30:39;;;;;;;0.17;0.17;;;16.20;99.90;;;;;;6083722;23;20211;-91
2023/10/03 09:33:09;;;;;;;1.33;0.90;;;16.20;99.90;;;;;;6112848;23;20263;-89
2023/10/03 09:35:36;;;;;;;1.63;0.57;;;16.10;99.90;;;;;;6118687;23;20148;-90
2023/10/03 09:38:08;;;;;;;0.63;0.60;;;16.10;99.90;;;;;;6100667;23;20695;-91
2023/10/03 09:40:49;;;;;;;0.63;0.63;;;16.10;99.90;;;;;;6113607;23;20204;-93
2023/10/03 09:43:19;;;;;;;1.20;0.60;;;16.20;99.90;;;;;;6081726;23;20215;-89
2023/10/03 09:45:47;;;;;;;0.57;0.57;;;16.20;99.90;;;;;;6103214;23;20196;-88
2023/10/03 09:48:15;;;;;;;0.63;0.40;;;16.20;99.90;;;;;;6127973;23;20192;-89
2023/10/03 09:50:51;;;;;;;0.30;0.30;;;16.10;99.90;;;;;;6078923;23;20617;-89
2023/10/03 09:53:19;;;;;;;0.20;0.20;;;16.20;99.90;;;;;;6058572;23;20210;-88
2023/10/03 09:55:49;;;;;;;0.20;0.20;;;15.90;99.90;;;;;;6101194;23;20295;-88
2023/10/03 09:58:24;;;;;;;0.20;0.20;;;15.60;99.90;;;;;;6126713;23;20235;-90
2023/10/03 10:00:55;;;;;;;0.50;0.43;;;15.20;99.90;;;;;;6056319;23;20203;-88
2023/10/03 10:03:30;;;;;;;2.07;0.47;;;15.10;99.90;;;;;;6102138;23;20198;-88
2023/10/03 10:05:59;;;;;;;0.30;0.30;;;15.10;99.90;;;;;;6103279;23;20191;-89
2023/10/03 10:08:41;;;;;;;0.27;0.27;;;14.90;99.90;;;;;;6128243;23;20158;-90
2023/10/03 10:11:10;;;;;;;0.57;0.40;;;14.80;99.90;;;;;;6128754;23;20323;-90
2023/10/03 10:13:37;;;;;;;0.30;0.30;;;14.90;99.90;;;;;;6079495;23;20199;-88
2023/10/03 10:16:07;;;;;;;0.30;0.30;;;15.00;99.90;;;;;;6102724;23;20191;-91
2023/10/03 10:18:45;;;;;;;0.53;0.53;;;15.10;99.90;;;;;;6103086;23;20195;-91
2023/10/03 10:21:20;;;;;;;2.07;1.00;;;15.00;99.90;;;;;;6126701;23;20505;-90
2023/10/03 10:24:20;;;;;;;9.90;1.13;;;15.10;99.90;;;;;;6126971;23;20164;-89
2023/10/03 10:26:52;;;;;;;0.50;0.50;;;15.10;99.90;;;;;;6128139;23;20148;-91
2023/10/03 10:29:19;;;;;;;3.03;0.60;;;15.10;99.90;;;;;;6103375;23;20176;-91
2023/10/03 10:31:49;;;;;;;2.53;1.07;;;15.10;99.90;;;;;;6102743;23;20301;-91
2023/10/03 10:34:21;;;;;;;2.17;0.67;;;15.00;99.90;;;;;;6102600;23;20282;-89
2023/10/03 10:37:03;;;;;;;1.10;1.10;;;14.70;99.90;;;;;;6126575;23;20276;-88
2023/10/03 10:39:54;;;;;;;1.93;0.90;;;14.80;99.90;;;;;;6126331;23;20274;-89
2023/10/03 10:42:30;;;;;;;2.47;0.50;;;15.00;99.90;;;;;;6126957;23;20219;-91
2023/10/03 10:45:13;;;;;;;0.70;0.60;;;15.10;99.90;;;;;;6055085;23;20203;-92
2023/10/03 10:47:51;;;;;;;5.00;1.17;;;15.10;99.90;;;;;;6126701;23;20457;-92
2023/10/03 10:50:25;;;;;;;1.03;0.83;;;15.10;99.90;;;;;;6102876;23;20204;-92
2023/10/03 10:53:01;;;;;;;0.80;0.67;;;15.00;99.90;;;;;;6101580;23;20539;-90
2023/10/03 10:55:27;;;;;;;0.73;0.50;;;15.10;99.90;;;;;;6102366;23;20279;-91
2023/10/03 10:58:12;;;;;;;1.03;0.93;;;15.00;99.90;;;;;;6102425;23;20200;-91
2023/10/03 11:00:38;;;;;;;0.30;0.27;;;15.00;99.90;;;;;;6102179;23;20235;-91
2023/10/03 11:03:05;;;;;;;1.23;1.13;;;15.10;99.90;;;;;;6127747;23;20207;-90
2023/10/03 11:05:43;;;;;;;0.40;0.40;;;15.20;99.90;;;;;;6101853;23;20164;-89
2023/10/03 11:08:09;;;;;;;0.83;0.60;;;15.30;99.90;;;;;;6103150;23;20164;-88
2023/10/03 11:10:46;;;;;;;2.00;0.60;;;15.20;99.90;;;;;;6078122;23;20223;-90
2023/10/03 11:13:12;;;;;;;0.93;0.50;;;15.40;99.90;;;;;;6102808;23;20219;-94
2023/10/03 11:15:47;;;;;;;0.40;0.40;;;15.50;99.90;;;;;;6054729;23;20673;-90
2023/10/03 11:18:14;;;;;;;1.20;0.80;;;15.60;99.90;;;;;;6102965;23;20263;-89
2023/10/03 11:20:40;;;;;;;2.83;0.50;;;15.70;99.90;;;;;;6102500;23;20184;-91
2023/10/03 11:23:15;;;;;;;0.70;0.50;;;15.80;99.90;;;;;;6103100;23;20579;-93
2023/10/03 11:25:56;;;;;;;0.47;0.40;;;15.80;99.90;;;;;;6104024;23;20529;-92
2023/10/03 11:28:28;;;;;;;0.67;0.67;;;15.90;99.90;;;;;;6107160;23;20244;-92
2023/10/03 11:31:06;;;;;;;1.33;0.60;;;16.00;99.90;;;;;;6079174;23;20215;-90
2023/10/03 11:33:46;;;;;;;0.40;0.40;;;16.00;99.90;;;;;;6102087;23;20230;-91
2023/10/03 11:36:13;;;;;;;0.80;0.50;;;16.00;99.90;;;;;;6101691;23;20271;-92
2023/10/03 11:38:49;;;;;;;2.63;0.90;;;16.00;99.90;;;;;;6101947;23;20188;-93
2023/10/03 11:41:31;;;;;;;6.30;1.00;;;16.00;99.90;;;;;;6102716;23;20164;-94
2023/10/03 11:43:57;;;;;;;1.10;0.67;;;15.90;99.90;;;;;;6102367;23;20234;-91
2023/10/03 11:46:23;;;;;;;8.27;1.50;;;15.90;99.90;;;;;;6054515;23;20267;-90
2023/10/03 11:48:59;;;;;;;2.67;0.90;;;15.90;99.90;;;;;;6077532;23;20262;-93
2023/10/03 11:51:25;;;;;;;7.00;1.27;;;15.90;99.90;;;;;;6127300;23;20240;-94
2023/10/03 11:53:54;;;;;;;3.20;1.00;;;15.80;99.90;;;;;;6126358;23;20196;-93
2023/10/03 11:56:20;;;;;;;3.60;0.77;;;15.80;99.90;;;;;;6128918;23;20562;-95
2023/10/03 11:58:48;;;;;;;1.87;0.90;;;16.00;99.90;;;;;;6102778;23;20597;-95
2023/10/03 12:01:15;;;;;;;11.03;1.23;;;16.10;99.90;;;;;;6101554;23;20200;-92
2023/10/03 12:03:42;;;;;;;1.53;1.30;;;16.20;99.90;;;;;;6103006;23;20527;-94
2023/10/03 12:06:08;;;;;;;0.97;0.80;;;16.30;99.90;;;;;;6128782;23;20223;-91
2023/10/03 12:08:40;;;;;;;1.87;1.27;;;16.30;99.90;;;;;;6102572;23;20152;-96
2023/10/03 12:11:10;;;;;;;4.13;1.00;;;16.40;99.90;;;;;;6105255;23;20614;-93
2023/10/03 12:13:45;;;;;;;6.97;1.20;;;16.40;99.90;;;;;;6087606;23;20200;-96
2023/10/03 12:16:11;;;;;;;0.80;0.60;;;16.40;99.90;;;;;;6102588;23;20255;-92
2023/10/03 12:18:37;;;;;;;0.67;0.67;;;16.50;99.90;;;;;;6067698;23;20195;-94
2023/10/03 12:21:04;;;;;;;0.83;0.83;;;16.60;99.90;;;;;;6081379;23;20160;-94
2023/10/03 12:23:34;;;;;;;5.10;0.80;;;16.70;99.90;;;;;;6101664;23;20224;-96
2023/10/03 12:26:35;;;;;;;3.20;1.43;;;16.70;99.90;;;;;;6101708;23;20196;-96
2023/10/03 12:29:04;;;;;;;2.40;0.80;;;16.70;99.90;;;;;;6084827;23;20196;-93
2023/10/03 12:31:36;;;;;;;0.73;0.73;;;16.80;99.90;;;;;;6102807;23;20267;-95
2023/10/03 12:34:04;;;;;;;1.20;0.90;;;16.80;99.90;;;;;;6102436;23;20722;-95
2023/10/03 12:36:32;;;;;;;0.97;0.87;;;16.80;99.90;;;;;;6101386;23;20151;-92
2023/10/03 12:39:10;;;;;;;0.40;0.40;;;17.00;99.90;;;;;;6102872;23;20144;-96
2023/10/03 12:41:37;;;;;;;0.43;0.43;;;17.00;99.90;;;;;;6101172;23;20260;-89
2023/10/03 12:44:06;;;;;;;1.30;0.73;;;16.90;99.90;;;;;;6085330;23;20203;-92
2023/10/03 12:46:39;;;;;;;2.27;0.47;;;17.00;99.90;;;;;;6080053;23;20192;-94
2023/10/03 12:49:08;;;;;;;1.63;0.87;;;17.00;99.90;;;;;;6100650;23;20199;-91
2023/10/03 12:51:39;;;;;;;1.00;0.83;;;17.10;99.90;;;;;;6095545;23;20319;-93
2023/10/03 12:54:13;;;;;;;0.47;0.47;;;17.10;99.90;;;;;;6098847;23;20212;-93
2023/10/03 12:56:39;;;;;;;0.70;0.70;;;17.10;99.90;;;;;;6096911;23;20184;-91